Mason Valley Wildlife Refuge, Nevada Weather observations

Data are for 10 minute period ending at time listed.
 Day   Time   Solar   Ave.   Ave.  Ave.  Vector  Max.   Baro.   Total    
  of    of     Rad.   Air    Rel.  Wind   Wind   Wind  Press.  Precip.   
Year   Day            Temp.  Hum.  Speed  Dir.   Gust                    
2014   (PST)  Kw/m2    F      %     mph   deg.    mph    mb.     in.     
-------------------------------------------------------------------------
 112   20:50   0.00   38.0    50    6.2   282     7.7   867.2    0.00 
 112   21:00   0.00   37.9    48    7.3   284    11.0   866.9    0.00 
 112   21:10   0.00   38.4    47    7.0   279     8.7   866.7    0.00 
 112   21:20   0.00   37.4    53    4.6   257     7.8   866.8    0.00 
 112   21:30   0.00   35.7    63    2.7   214     4.6   867.0    0.00 
 112   21:40   0.00   35.2    61    1.3     3     2.9   867.0    0.00 
 112   21:50   0.00   36.3    54    2.5   341     4.1   867.0    0.00 
 112   22:00   0.00   35.4    54    4.5    95     6.8   867.1    0.00 
 112   22:10   0.00   36.8    53    5.5   111     8.6   867.2    0.00 
 112   22:20   0.00   38.5    50    1.7   143     4.0   867.2    0.00 
 112   22:30   0.00   37.2    54    2.7   276     3.9   867.1    0.00 
 112   22:40   0.00   37.0    53    1.1   300     3.4   867.3    0.00 
 112   22:50   0.00   37.9    51    0.4   321     3.9   867.3    0.00 
 112   23:00   0.00   36.4    51    1.8   336     4.6   867.3    0.00 
 112   23:10   0.00   33.0    59    2.7    50     4.6   867.3    0.00 
 112   23:20   0.00   32.8    64    2.1    73     3.2   867.3    0.00 
 112   23:30   0.00   34.1    65    1.2   188     3.1   867.3    0.00 
 112   23:40   0.00   34.5    66    2.0   254     3.2   867.3    0.00 
 112   23:50   0.00   37.3    54    3.2   304     5.6   867.4    0.00 
 113    0:00   0.00   38.8    47    2.7   330     4.3   867.3    0.00 
 113    0:10   0.00   38.7    48    2.0   360     4.4   867.3    0.00 
 113    0:20   0.00   36.8    58    4.7   156     6.3   867.4    0.00 
 113    0:30   0.00   37.0    56    4.3   170     6.6   867.4    0.00 
 113    0:40   0.00   36.9    59    2.3   210     4.2   867.4    0.00 
 113    0:50   0.00   37.2    60    4.1   217     5.6   867.2    0.00 
 113    1:00   0.00   37.6    60    0.8   226     3.8   867.2    0.00 
 113    1:10   0.00   37.3    60    0.0     0     0.0   867.1    0.00 
 113    1:20   0.00   36.9    58    0.5   192     1.5   867.0    0.00 
 113    1:30   0.00   36.4    66    3.6   216     4.6   867.0    0.00 
 113    1:40   0.00   37.0    63    2.5   217     3.9   866.7    0.00 
 113    1:50   0.00   36.2    63    0.2   147     0.8   866.7    0.00 
 113    2:00   0.00   34.8    60    0.9   159     2.0   866.7    0.00 
 113    2:10   0.00   33.8    63    0.5   157     1.9   866.7    0.00 
 113    2:20   0.00   32.8    62    2.4   184     3.8   866.6    0.00 
 113    2:30   0.00   31.7    62    1.9   149     2.7   866.7    0.00 
 113    2:40   0.00   30.0    64    1.5   119     2.6   866.8    0.00 
 113    2:50   0.00   29.4    68    0.3   120     1.2   867.1    0.00 
 113    3:00   0.00   30.3    66    0.5   320     2.9   867.2    0.00 
 113    3:10   0.00   30.6    67    0.7   310     1.6   867.3    0.00 
 113    3:20   0.00   30.6    71    0.5   296     4.2   867.3    0.00 
 113    3:30   0.00   29.2    70    1.1    49     4.8   867.3    0.00 
 113    3:40   0.00   29.0    70    2.2   115     4.0   867.4    0.00 
 113    3:50   0.00   28.7    71    1.7   191     2.3   867.5    0.00 
 113    4:00   0.00   28.4    73    2.6   182     3.4   867.4    0.00 
 113    4:10   0.00   29.4    72    2.4   170     2.9   867.4    0.00 
 113    4:20   0.00   28.5    72    3.5   165     4.9   867.4    0.00 
 113    4:30   0.00   27.3    76    2.1   172     2.9   867.6    0.00 
 113    4:40   0.00   27.0    74    2.1   184     2.5   867.8    0.00 
 113    4:50   0.00   25.5    74    2.7   116     5.0   867.9    0.00 
 113    5:00   0.00   24.7    76    1.5   125     3.2   867.9    0.00 
 113    5:10   0.00   25.7    79    2.9   146     4.7   868.0    0.00 
 113    5:20   0.01   25.9    80    1.4   170     3.1   868.2    0.00 
 113    5:30   0.02   25.5    78    2.3   144     3.5   868.2    0.00 
 113    5:40   0.03   26.9    79    1.3   177     2.0   868.3    0.00 
 113    5:50   0.05   28.6    77    2.4   230     2.9   868.4    0.00 
 113    6:00   0.08   29.7    78    2.1   204     3.1   868.5    0.00 
 113    6:10   0.11   32.1    75    0.3   198     1.3   868.5    0.00 
 113    6:20   0.12   35.9    66    0.2   196     1.5   868.6    0.00 
 113    6:30   0.17   36.2    67    2.8   241     5.5   868.7    0.00 
 113    6:40   0.21   36.6    62    2.4   260     3.7   868.8    0.00 
 113    6:50   0.24   39.0    58    1.2   242     2.0   868.8    0.00 
 113    7:00   0.27   41.0    52    0.9   209     2.6   868.8    0.00 
 113    7:10   0.31   43.6    45    0.5    91     2.5   869.0    0.00 
 113    7:20   0.31   44.0    43    1.3   353     2.8   869.2    0.00 
 113    7:30   0.34   44.2    42    1.3   240     4.5   869.3    0.00 
 113    7:40   0.34   44.9    40    1.9   256     3.7   869.3    0.00 
 113    7:50   0.42   45.2    40    3.1   117     8.0   869.3    0.00 
 113    8:00   0.49   45.5    39    2.9    74     5.7   869.3    0.00 
 113    8:10   0.51   46.4    38    2.5   133     7.1   869.3    0.00 
 113    8:20   0.56   46.8    38    2.8   219     4.9   869.3    0.00 
 113    8:30   0.59   47.2    37    2.1   170     6.4   869.3    0.00 
 113    8:40   0.62   47.4    36    2.1    64     6.6   869.3    0.00 
 113    8:50   0.65   47.6    37    4.2   151     8.0   869.3    0.00 
 113    9:00   0.36   48.2    36    2.4   254     7.2   869.4    0.00 
 113    9:10   0.04   48.3    35    4.8   118     9.6   869.5    0.00 
 113    9:20   0.65   47.9    35    4.5   104     7.2   869.4    0.00 
 113    9:30   0.76   49.2    35    3.2   227     7.8   869.4    0.00 
 113    9:40   0.78   49.2    35    4.8   252    11.2   869.4    0.00 
 113    9:50   0.81   49.2    34    3.2   177     6.8   869.4    0.00 
 113   10:00   0.83   50.6    33    1.8   259     4.9   869.5    0.00 
 113   10:10   0.85   50.7    33    3.2   245     6.9   869.5    0.00 
 113   10:20   0.87   51.2    32    3.0   265     7.2   869.5    0.00 
 113   10:30   0.89   51.5    31    2.9   214     6.9   869.5    0.00 
 113   10:40   0.91   51.0    31    3.0   219     7.2   869.4    0.00 
 113   10:50   0.92   52.2    30    2.4   316     6.2   869.3    0.00 
 113   11:00   0.93   51.7    30    4.0   274     9.2   869.1    0.00 
 113   11:10   0.94   53.1    32    4.2    77     9.3   869.0    0.00 
 113   11:20   0.95   54.0    30    3.4    48     7.4   868.9    0.00 
 113   11:30   0.96   53.1    30    4.9    95    10.2   868.8    0.00 
 113   11:40   0.97   53.1    30    4.7    26    11.8   868.6    0.00 
 113   11:50   0.97   53.5    29    4.7   353    11.8   868.5    0.00 
 113   12:00   0.97   53.3    29    5.5    55    12.6   868.3    0.00 
 113   12:10   0.97   54.0    29    6.0    40    11.6   868.3    0.00 
 113   12:20   0.97   54.5    28    3.1    46     7.5   868.2    0.00 
 113   12:30   0.96   54.9    28    5.1    65    11.0   868.2    0.00 
 113   12:40   0.96   55.7    27    3.2   124     9.1   868.0    0.00 
 113   12:50   0.96   56.4    26    3.9   213     8.4   868.0    0.00 
 113   13:00   0.96   56.8    26    3.4   117     8.5   867.9    0.00 
 113   13:10   0.94   56.7    26    4.9   302    10.7   867.8    0.00 
 113   13:20   0.95   57.2    26    4.4    64     9.7   867.7    0.00 
 113   13:30   0.93   58.1    25    3.5   243     8.6   867.7    0.00 
 113   13:40   0.90   58.5    25    4.9   275    11.0   867.6    0.00 
 113   13:50   0.88   58.7    25    3.6   269     7.4   867.5    0.00 
 113   14:00   0.85   59.2    24    2.9   114     7.1   867.3    0.00 
 113   14:10   0.85   58.9    25    3.8   154     8.2   867.2    0.00 
 113   14:20   0.81   59.9    25    3.2   160     6.8   867.0    0.00 
 113   14:30   0.77   59.5    24    5.0     6    10.0   866.9    0.00 
 113   14:40   0.76   59.9    23    3.5    97     9.6   866.7    0.00 
 113   14:50   0.72   61.1    24    2.4   259     8.3   866.6    0.00 
 113   15:00   0.71   60.1    22    4.1   171     7.9   866.5    0.00 
 113   15:10   0.67   60.6    23    3.4   226     7.5   866.4    0.00 
 113   15:20   0.65   61.2    23    1.8   238     4.2   866.3    0.00 
 113   15:30   0.64   61.2    22    6.0    66    12.8   866.2    0.00 
 113   15:40   0.48   60.4    22    4.7    20    11.0   866.2    0.00 
 113   15:50   0.58   61.4    21    3.9   110     9.9   866.2    0.00 
 113   16:00   0.53   61.2    22    5.1    70     8.7   866.2    0.00 
 113   16:10   0.52   61.1    22    4.5     8     9.6   866.2    0.00 
 113   16:20   0.47   60.8    22    5.4    74     9.7   866.2    0.00 
 113   16:30   0.44   61.4    23    2.8   356     5.8   866.2    0.00 
 113   16:40   0.42   61.1    22    4.4    29     8.0   866.2    0.00 
 113   16:50   0.27   61.1    22    2.8    67     6.7   866.2    0.00 
 113   17:00   0.24   61.6    22    1.7     9     5.8   866.2    0.00 
 113   17:10   0.19   61.4    20    1.7    55     4.2   866.2    0.00 
 113   17:20   0.24   61.5    22    2.0   202     5.6   866.0    0.00 
 113   17:30   0.24   61.4    21    1.5   190     3.5   866.0    0.00 
 113   17:40   0.18   61.1    22    1.4   223     2.8   866.0    0.00 
 113   17:50   0.10   61.1    23    0.4   323     1.6   866.0    0.00 
 113   18:00   0.12   60.9    21    0.1   258     0.7   866.0    0.00 
 113   18:10   0.07   60.2    24    1.4   243     3.5   866.1    0.00 
 113   18:20   0.04   59.5    24    1.8   241     2.9   866.2    0.00 
 113   18:30   0.02   58.5    26    2.2   250     2.9   866.3    0.00 
 113   18:40   0.01   57.3    26    2.5   279     5.3   866.4    0.00 
 113   18:50   0.00   55.3    26    4.4   350     6.9   866.6    0.00 
 113   19:00   0.00   55.1    25    3.9   348     6.6   866.7    0.00 
 113   19:10   0.00   55.9    24    5.0   355     9.2   866.8    0.00 
 113   19:20   0.00   54.8    25    5.4    30     6.9   866.8    0.00 
 113   19:30   0.00   53.3    26    5.0    12     6.6   866.9    0.00 
 113   19:40   0.00   53.6    25    3.3    34     5.8   867.1    0.00 
 113   19:50   0.00   52.3    28    3.6   108     5.9   867.2    0.00 
 113   20:00   0.00   51.0    29    3.6   120     4.9   867.3    0.00 
 113   20:10   0.00   52.5    26    5.0    90     7.1   867.4    0.00 
 113   20:20   0.00   54.4    24    3.8    95     5.5   867.5    0.00 
 113   20:30   0.00   51.8    28    1.5     6     2.9   867.5    0.00 
 113   20:40   0.00   51.5    28    1.5     6     3.1   867.5    0.00 

Return to Mason Valley Wildlife Refuge graphs page.


Western Regional Climate Center,wrcc@dri.edu